Flight Track Log - Related Links

Times and Time Zones

All times are in EDT time to prevent confusion due to time zone crossing. See the CTL22 flight status page for this flight to view local times or setup timezone preferences in your user account.

Time Position Orientation Groundspeed Altitude Reporting Facility
EDT Latitude Longitude Course Direction KTS MPH feet Rate Location/Type
Tue 09:53:15 PM 42.1494 -83.0842 303° West 144 166 6,100  Level Cleveland Center
Tue 09:54:15 PM 42.1714 -83.1300 303° West 145 167 6,100  Level Cleveland Center
Tue 09:55:16 PM 42.1847 -83.1808 290° West 145 167 6,100  Level Cleveland Center
Tue 09:56:11 PM 42.2025 -83.2264 298° West 145 167 6,100  Level Cleveland Center
Tue 09:57:12 PM 42.2161 -83.2747 291° West 144 166 6,100  Level Cleveland Center
Tue 09:58:25 PM 42.2375 -83.3372 295° West 144 166 6,100 45 Level Cleveland Center
Tue 09:59:26 PM 42.2531 -83.3856 294° West 145 167 6,200  Climbing Cleveland Center
Tue 10:00:15 PM 42.2667 -83.4283 293° West 145 167 6,100 -55 Descending Cleveland Center
Tue 10:01:16 PM 42.2819 -83.4767 293° West 146 168 6,100  Level Cleveland Center
Tue 10:02:23 PM 42.2972 -83.5308 291° West 144 166 6,100  Level Cleveland Center
Tue 10:03:24 PM 42.3147 -83.5850 294° West 143 165 6,100  Level Cleveland Center
Tue 10:04:25 PM 42.3281 -83.6361 289° West 143 165 6,100  Level Cleveland Center
Tue 10:05:26 PM 42.3453 -83.6847 296° West 144 166 6,100  Level Cleveland Center
Tue 10:08:00 PM 41.5644 -81.8071 297° West  Level Estimated
Tue 10:09:10 PM 42.4056 -83.8572 297° West 140 161 6,100  Level Chicago Center
Tue 10:10:11 PM 42.4200 -83.9053 292° West 141 162 6,100 49 Level Chicago Center
Tue 10:11:12 PM 42.4361 -83.9544 294° West 142 163 6,200  Climbing Chicago Center
Tue 10:12:14 PM 42.4536 -84.0008 297° West 139 160 6,100 -49 Descending Chicago Center
Tue 10:13:15 PM 42.4744 -84.0578 296° West 141 162 6,100 -49 Level Chicago Center
Tue 10:14:17 PM 42.4881 -84.1064 291° West 139 160 6,000 -49 Descending Chicago Center
Tue 10:15:18 PM 42.5036 -84.1531 294° West 137 158 6,000 49 Level Chicago Center
Tue 10:16:19 PM 42.5186 -84.2006 293° West 138 159 6,100 49 Climbing Chicago Center
Tue 10:17:21 PM 42.5319 -84.2494 290° West 138 159 6,100 -49 Level Chicago Center
Tue 10:18:22 PM 42.5453 -84.2986 290° West 140 161 6,000 -49 Descending Chicago Center
Tue 10:19:24 PM 42.5600 -84.3472 292° West 141 162 6,000  Level Chicago Center
Tue 10:20:25 PM 42.5764 -84.3956 295° West 140 161 6,000 49 Level Chicago Center
Tue 10:21:27 PM 42.5886 -84.4442 289° West 139 160 6,100  Climbing Chicago Center
Tue 10:22:28 PM 42.6056 -84.5031 291° West 140 161 6,000  Descending Chicago Center
Tue 10:23:29 PM 42.6222 -84.5514 295° West 142 163 6,100 49 Climbing Chicago Center
Tue 10:24:31 PM 42.6381 -84.5997 294° West 141 162 6,100 -49 Level Chicago Center
Tue 10:25:32 PM 42.6519 -84.6497 291° West 141 162 6,000  Descending Chicago Center
Tue 10:26:34 PM 42.6667 -84.7000 292° West 143 165 6,100 49 Climbing Chicago Center
Tue 10:27:35 PM 42.6792 -84.7503 289° West 141 162 6,100 -49 Level Chicago Center
Tue 10:28:36 PM 42.6931 -84.8006 291° West 142 163 6,000 -439 Descending Chicago Center
Tue 10:29:38 PM 42.7100 -84.8550 293° West 152 175 5,200 -780 Descending Chicago Center
Tue 10:30:39 PM 42.7289 -84.9247 290° West 162 186 4,400 -585 Descending Chicago Center
Tue 10:31:41 PM 42.7478 -84.9786 296° West 161 185 4,000 -195 Descending Chicago Center
Tue 10:32:42 PM 42.7611 -85.0306 289° West 151 174 4,000 49 Level Chicago Center
Tue 10:33:44 PM 42.7733 -85.0794 289° West 140 161 4,100 -98 Climbing Chicago Center
Tue 10:34:45 PM 42.7842 -85.1292 287° West 138 159 3,800 -295 Descending Chicago Center
Tue 10:35:46 PM 42.7997 -85.1817 292° West 146 168 3,500 -390 Descending Chicago Center
Tue 10:36:48 PM 42.8103 -85.2369 285° West 150 173 3,000 -537 Descending Chicago Center
Tue 10:37:49 PM 42.8289 -85.2925 295° West 158 182 2,400 -293 Descending Chicago Center
Tue 10:38:51 PM 42.8464 -85.3481 293° West 160 184 2,400 -244 Level Chicago Center
Tue 10:39:52 PM 42.8656 -85.4156 291° West 159 183 1,900 -488 Descending Chicago Center
Tue 10:40:54 PM 42.8772 -85.4672 287° West 153 176 1,400 -439 Descending Chicago Center
Tue 10:41:55 PM 42.8811 -85.5064 278° West 125 144 1,000 -393 Descending Chicago Center
Tue 10:43:00 PM 42.8667 -85.5167 270° West  Level FlightAware Approximate
Tue 10:50:00 PM 42.8808 -85.5228 270° West  Level Estimated

Login

Don't have an account? Register now (free) for customized features, flight alerts, and more!